createdAt,value
2017-07-18T00:01:36.949Z,76.00
2017-07-18T00:04:04.418Z,76.00
2017-07-18T00:06:31.914Z,76.30
2017-07-18T00:09:00.149Z,76.10
2017-07-18T00:11:27.617Z,76.00
2017-07-18T00:13:55.109Z,75.90
2017-07-18T00:16:22.578Z,75.60
2017-07-18T00:18:50.061Z,75.80
2017-07-18T00:21:17.553Z,75.30
2017-07-18T00:23:45.025Z,75.30
2017-07-18T00:26:13.545Z,75.30
2017-07-18T00:28:41.393Z,75.30
2017-07-18T00:31:08.865Z,76.10
2017-07-18T00:33:36.337Z,75.70
2017-07-18T00:36:03.833Z,76.10
2017-07-18T00:38:32.071Z,77.00
2017-07-18T00:40:59.541Z,76.30
2017-07-18T00:43:27.800Z,76.60
2017-07-18T00:45:55.272Z,75.90
2017-07-18T00:48:22.746Z,77.10
2017-07-18T00:50:50.240Z,77.30
2017-07-18T00:53:18.026Z,77.50
2017-07-18T00:55:45.510Z,77.60
2017-07-18T00:58:13.029Z,77.80
2017-07-18T01:00:40.502Z,77.90
2017-07-18T01:03:07.974Z,77.90
2017-07-18T01:05:35.873Z,77.90
2017-07-18T01:08:04.110Z,78.00
2017-07-18T01:10:31.582Z,78.00
2017-07-18T01:12:59.077Z,78.40
2017-07-18T01:15:27.533Z,80.30
2017-07-18T01:17:55.002Z,80.20
2017-07-18T01:20:23.262Z,80.60
2017-07-18T01:22:50.734Z,80.50
2017-07-18T01:25:19.259Z,80.60
2017-07-18T01:27:46.763Z,80.60
2017-07-18T01:30:14.482Z,80.30
2017-07-18T01:32:41.954Z,80.90
2017-07-18T01:35:09.467Z,81.10
2017-07-18T01:37:36.943Z,80.90
2017-07-18T01:40:04.466Z,80.90
2017-07-18T01:42:32.734Z,80.90
2017-07-18T01:45:00.209Z,80.80
2017-07-18T01:47:28.441Z,81.60
2017-07-18T01:49:56.029Z,81.60
2017-07-18T01:52:24.275Z,81.70
2017-07-18T01:54:51.745Z,81.70
2017-07-18T01:57:19.256Z,82.10
2017-07-18T01:59:46.728Z,82.30
2017-07-18T02:02:14.451Z,82.00
2017-07-18T02:04:43.090Z,82.60
2017-07-18T02:07:11.369Z,82.60
2017-07-18T02:09:38.842Z,82.50
2017-07-18T02:12:06.725Z,82.50
2017-07-18T02:14:34.971Z,82.50
2017-07-18T02:17:02.440Z,82.50
2017-07-18T02:19:29.937Z,83.20
2017-07-18T02:21:57.405Z,83.60
2017-07-18T02:24:24.885Z,84.30
2017-07-18T02:26:52.386Z,84.50
2017-07-18T02:29:20.629Z,84.80
2017-07-18T02:31:48.101Z,84.80
2017-07-18T02:34:15.679Z,85.10
2017-07-18T02:36:43.938Z,85.60
2017-07-18T02:39:11.583Z,85.50
2017-07-18T02:41:39.559Z,85.80
2017-07-18T02:44:07.178Z,85.70
2017-07-18T02:46:34.743Z,85.80
2017-07-18T02:49:02.262Z,86.20
2017-07-18T02:51:30.534Z,86.60
2017-07-18T02:53:58.781Z,87.00
2017-07-18T02:56:26.274Z,86.60
2017-07-18T02:58:54.733Z,86.30
2017-07-18T03:01:22.457Z,86.30
2017-07-18T03:03:49.961Z,86.10
2017-07-18T03:06:17.438Z,86.30
2017-07-18T03:08:45.685Z,85.90
2017-07-18T03:11:14.386Z,86.60
2017-07-18T03:13:42.629Z,86.40
2017-07-18T03:16:10.101Z,86.40
2017-07-18T03:18:37.606Z,86.50
2017-07-18T03:21:05.081Z,86.40
2017-07-18T03:23:32.557Z,86.90
2017-07-18T03:26:00.055Z,86.90
2017-07-18T03:28:27.554Z,86.80
2017-07-18T03:30:55.042Z,87.40
2017-07-18T03:33:22.549Z,87.00
2017-07-18T03:35:50.342Z,87.50
2017-07-18T03:38:17.822Z,87.40
2017-07-18T03:40:45.336Z,87.80
2017-07-18T03:43:12.861Z,87.20
2017-07-18T03:45:41.101Z,87.90
2017-07-18T03:48:08.602Z,87.90
2017-07-18T03:50:36.851Z,87.60
2017-07-18T03:53:04.321Z,87.60
2017-07-18T03:55:32.585Z,87.80
2017-07-18T03:58:00.057Z,87.80
2017-07-18T04:00:28.336Z,87.30
2017-07-18T04:02:56.610Z,87.40
2017-07-18T04:05:24.851Z,87.30
2017-07-18T04:07:52.325Z,87.20
2017-07-18T04:10:19.826Z,87.10
2017-07-18T04:12:47.306Z,86.90
2017-07-18T04:15:14.783Z,86.80
2017-07-18T04:17:42.289Z,86.70
2017-07-18T04:20:09.762Z,86.70
2017-07-18T04:22:37.282Z,86.70
2017-07-18T04:25:05.551Z,86.80
2017-07-18T04:27:34.621Z,86.70
2017-07-18T04:30:02.112Z,86.70
2017-07-18T04:32:30.376Z,86.20
2017-07-18T04:34:58.702Z,86.20
2017-07-18T04:37:26.178Z,86.20
2017-07-18T04:39:53.673Z,85.70
2017-07-18T04:42:21.931Z,85.70
2017-07-18T04:44:49.402Z,85.60
2017-07-18T04:47:16.915Z,85.60
2017-07-18T04:49:44.397Z,85.80
2017-07-18T04:52:11.906Z,84.80
2017-07-18T04:54:39.689Z,84.60
2017-07-18T04:57:07.165Z,84.90
2017-07-18T04:59:34.646Z,84.80
2017-07-18T05:02:02.146Z,85.00
2017-07-18T05:04:29.621Z,84.70
2017-07-18T05:06:57.179Z,85.20
2017-07-18T05:09:24.693Z,84.90
2017-07-18T05:11:52.937Z,90.20
2017-07-18T05:14:20.463Z,90.20
2017-07-18T05:16:47.957Z,85.00
2017-07-18T05:19:15.430Z,76.90
2017-07-18T05:21:42.905Z,77.00
2017-07-18T05:24:10.402Z,76.20
2017-07-18T05:26:37.915Z,70.70
2017-07-18T05:29:06.162Z,69.70
2017-07-18T05:31:33.682Z,69.70
2017-07-18T05:34:01.149Z,69.90
2017-07-18T05:36:28.849Z,73.00
2017-07-18T05:38:56.338Z,69.00
2017-07-18T05:41:23.849Z,65.50
2017-07-18T05:43:51.318Z,62.80
2017-07-18T05:46:19.590Z,59.40
2017-07-18T05:48:47.062Z,59.30
2017-07-18T05:51:15.301Z,56.70
2017-07-18T05:53:42.793Z,56.00
2017-07-18T05:56:10.269Z,56.80
2017-07-18T05:58:37.777Z,58.20
2017-07-18T06:01:05.490Z,61.10
2017-07-18T06:03:37.172Z,61.20
2017-07-18T06:06:04.918Z,58.90
2017-07-18T06:08:32.441Z,55.20
2017-07-18T06:10:59.914Z,55.40
2017-07-18T06:13:28.169Z,53.00
2017-07-18T06:15:55.641Z,53.00
2017-07-18T06:18:23.882Z,54.70
2017-07-18T06:20:51.447Z,54.10
2017-07-18T06:23:19.722Z,53.90
2017-07-18T06:25:48.445Z,55.70
2017-07-18T06:28:15.998Z,57.50
2017-07-18T06:30:44.298Z,57.80
2017-07-18T06:33:12.641Z,56.80
2017-07-18T06:35:40.146Z,56.70
2017-07-18T06:38:07.618Z,56.20
2017-07-18T06:40:35.093Z,56.40
2017-07-18T06:43:02.681Z,56.70
2017-07-18T06:45:30.925Z,57.50
2017-07-18T06:47:58.398Z,57.40
2017-07-18T06:50:26.115Z,55.10
2017-07-18T06:52:53.585Z,56.40
2017-07-18T06:55:21.052Z,55.70
2017-07-18T06:57:48.965Z,56.30
2017-07-18T07:00:17.202Z,53.60
2017-07-18T07:02:44.674Z,53.60
2017-07-18T07:05:12.499Z,53.70
2017-07-18T07:07:39.981Z,52.20
2017-07-18T07:10:07.468Z,51.10
2017-07-18T07:12:35.731Z,50.80
2017-07-18T07:15:03.203Z,50.80
2017-07-18T07:17:31.453Z,49.30
2017-07-18T07:19:59.181Z,49.20
2017-07-18T07:22:26.654Z,49.30
2017-07-18T07:24:54.126Z,49.70
2017-07-18T07:27:21.621Z,50.80
2017-07-18T07:29:49.925Z,52.00
2017-07-18T07:32:17.407Z,51.90
2017-07-18T07:34:44.909Z,51.40
2017-07-18T07:37:13.218Z,50.70
2017-07-18T07:39:40.693Z,50.60
2017-07-18T07:42:08.194Z,50.30
2017-07-18T07:44:35.722Z,49.50
2017-07-18T07:47:03.194Z,47.90
2017-07-18T07:49:30.684Z,48.10
2017-07-18T07:51:58.355Z,49.10
2017-07-18T07:54:26.688Z,48.60
2017-07-18T07:56:54.210Z,48.60
2017-07-18T07:59:21.721Z,48.30
2017-07-18T08:01:50.043Z,47.90
2017-07-18T08:04:17.554Z,47.80
2017-07-18T08:06:45.794Z,44.50
2017-07-18T08:09:13.265Z,44.50
2017-07-18T08:11:40.763Z,44.30
2017-07-18T08:14:08.233Z,44.10
2017-07-18T08:16:35.712Z,44.30
2017-07-18T08:19:03.312Z,43.30
2017-07-18T08:21:31.549Z,42.00
2017-07-18T08:23:59.017Z,42.00
2017-07-18T08:26:26.509Z,42.70
2017-07-18T08:28:55.033Z,43.30
2017-07-18T08:31:22.504Z,43.20
2017-07-18T08:33:50.405Z,39.30
2017-07-18T08:36:17.876Z,41.10
2017-07-18T08:38:45.346Z,41.30
2017-07-18T08:41:12.862Z,40.70
2017-07-18T08:43:40.333Z,41.30
2017-07-18T08:46:08.582Z,38.50
2017-07-18T08:48:36.077Z,38.80
2017-07-18T08:51:04.317Z,40.60
2017-07-18T08:53:32.055Z,40.60
2017-07-18T08:55:59.554Z,39.80
2017-07-18T08:58:27.029Z,40.30
2017-07-18T09:00:55.269Z,37.90
2017-07-18T09:03:22.761Z,37.90
2017-07-18T09:05:51.005Z,40.50
2017-07-18T09:08:18.474Z,40.40
2017-07-18T09:10:45.965Z,41.30
2017-07-18T09:13:13.437Z,38.00
2017-07-18T09:15:40.910Z,38.20
2017-07-18T09:18:08.410Z,37.70
2017-07-18T09:20:36.657Z,38.60
2017-07-18T09:23:04.196Z,38.60
2017-07-18T09:25:31.901Z,40.80
2017-07-18T09:27:59.369Z,38.50
2017-07-18T09:30:27.739Z,37.40
2017-07-18T09:32:56.233Z,40.60
2017-07-18T09:35:24.472Z,37.20
2017-07-18T09:37:51.941Z,37.10
2017-07-18T09:40:19.429Z,37.50
2017-07-18T09:42:46.902Z,38.10
2017-07-18T09:45:14.379Z,36.70
2017-07-18T09:47:41.879Z,36.00
2017-07-18T09:50:09.370Z,36.50
2017-07-18T09:52:36.846Z,34.70
2017-07-18T09:55:04.568Z,38.10
2017-07-18T09:57:32.041Z,35.70
2017-07-18T09:59:59.517Z,35.70
2017-07-18T10:02:27.161Z,35.30
2017-07-18T10:04:54.634Z,35.10
2017-07-18T10:07:22.112Z,34.10
2017-07-18T10:09:49.609Z,34.60
2017-07-18T10:12:17.845Z,35.50
2017-07-18T10:14:45.313Z,35.40
2017-07-18T10:17:12.801Z,35.20
2017-07-18T10:19:40.284Z,36.70
2017-07-18T10:22:07.970Z,33.80
2017-07-18T10:24:35.473Z,33.70
2017-07-18T10:27:03.723Z,33.20
2017-07-18T10:29:32.583Z,33.20
2017-07-18T10:32:02.339Z,32.00
2017-07-18T10:34:31.716Z,31.50
2017-07-18T10:37:00.555Z,31.40
2017-07-18T10:39:29.739Z,32.20
2017-07-18T10:41:59.023Z,29.90
2017-07-18T10:44:28.412Z,30.00
2017-07-18T10:46:58.253Z,32.70
2017-07-18T10:49:28.271Z,34.40
2017-07-18T10:51:57.548Z,33.20
2017-07-18T10:54:27.148Z,31.80
2017-07-18T10:56:56.030Z,30.90
2017-07-18T10:59:26.015Z,29.70
2017-07-18T11:01:56.401Z,32.60
2017-07-18T11:04:24.756Z,32.60
2017-07-18T11:06:54.449Z,35.20
2017-07-18T11:09:25.465Z,33.60
2017-07-18T11:11:54.896Z,33.60
2017-07-18T11:14:24.772Z,35.10
2017-07-18T11:16:54.389Z,33.20
2017-07-18T11:19:23.683Z,33.30
2017-07-18T11:21:52.194Z,32.70
2017-07-18T11:24:21.562Z,31.70
2017-07-18T11:26:51.273Z,32.10
2017-07-18T11:29:20.407Z,32.30
2017-07-18T11:31:49.460Z,32.20
2017-07-18T11:34:18.750Z,31.00
2017-07-18T11:36:47.897Z,31.70
2017-07-18T11:39:17.739Z,30.50
2017-07-18T11:41:47.358Z,29.60
2017-07-18T11:44:16.794Z,30.30
2017-07-18T11:46:46.172Z,30.80
2017-07-18T11:49:17.586Z,31.80
2017-07-18T11:51:46.867Z,31.60
2017-07-18T11:54:16.740Z,32.30
2017-07-18T11:56:45.549Z,33.60
2017-07-18T11:59:15.209Z,29.40
2017-07-18T12:01:44.762Z,29.90
2017-07-18T12:04:13.711Z,30.10
2017-07-18T12:06:43.079Z,30.40
2017-07-18T12:09:12.828Z,29.00
2017-07-18T12:11:41.067Z,29.60
2017-07-18T12:14:09.940Z,30.50
2017-07-18T12:16:39.459Z,30.80
2017-07-18T12:19:12.083Z,31.90
2017-07-18T12:21:40.286Z,31.80
2017-07-18T12:24:09.845Z,30.50
2017-07-18T12:26:39.302Z,31.90
2017-07-18T12:29:08.812Z,35.80
2017-07-18T12:31:38.500Z,35.70
2017-07-18T12:34:07.541Z,36.20
2017-07-18T12:36:37.396Z,34.50
2017-07-18T12:39:06.044Z,35.20
2017-07-18T12:41:35.305Z,35.30
2017-07-18T12:44:04.395Z,37.50
2017-07-18T12:46:33.519Z,38.20
2017-07-18T12:49:03.886Z,37.40
2017-07-18T12:51:33.283Z,37.60
2017-07-18T12:54:02.743Z,36.90
2017-07-18T12:56:32.010Z,37.00
2017-07-18T12:59:01.480Z,37.20
2017-07-18T13:01:31.215Z,35.30
2017-07-18T13:04:01.360Z,36.90
2017-07-18T13:06:31.295Z,37.90
2017-07-18T13:09:00.683Z,37.90
2017-07-18T13:11:29.939Z,34.50
2017-07-18T13:14:00.460Z,35.30
2017-07-18T13:16:30.179Z,35.30
2017-07-18T13:18:59.595Z,36.30
2017-07-18T13:21:28.983Z,33.70
2017-07-18T13:23:58.681Z,34.50
2017-07-18T13:26:28.670Z,36.20
2017-07-18T13:28:58.695Z,38.70
2017-07-18T13:31:29.005Z,39.20
2017-07-18T13:33:59.065Z,39.70
2017-07-18T13:36:29.561Z,40.70
2017-07-18T13:38:59.283Z,42.00
2017-07-18T13:41:28.249Z,42.40
2017-07-18T13:43:57.781Z,40.50
2017-07-18T13:46:27.046Z,40.40
2017-07-18T13:48:57.144Z,36.60
2017-07-18T13:51:26.657Z,36.60
2017-07-18T13:53:56.714Z,39.10
2017-07-18T13:56:26.420Z,40.40
2017-07-18T13:58:57.229Z,40.50
2017-07-18T14:01:28.161Z,40.40
2017-07-18T14:03:58.276Z,41.80
2017-07-18T14:06:29.315Z,41.00
2017-07-18T14:08:59.188Z,40.90
2017-07-18T14:11:27.891Z,38.40
2017-07-18T14:13:58.528Z,38.80
2017-07-18T14:16:28.177Z,38.80
2017-07-18T14:18:58.700Z,38.80
2017-07-18T14:21:28.043Z,38.00
2017-07-18T14:23:58.220Z,37.40
2017-07-18T14:26:27.942Z,37.20
2017-07-18T14:28:57.501Z,37.70
2017-07-18T14:31:27.177Z,37.70
2017-07-18T14:33:56.351Z,37.70
2017-07-18T14:36:23.875Z,37.30
2017-07-18T14:38:51.613Z,37.00
2017-07-18T14:41:19.929Z,37.60
2017-07-18T14:43:47.545Z,37.60
2017-07-18T14:46:15.045Z,38.50
2017-07-18T14:48:42.533Z,35.90
2017-07-18T14:51:10.773Z,35.70
2017-07-18T14:53:38.270Z,35.60
2017-07-18T14:56:06.512Z,38.30
2017-07-18T14:58:33.984Z,38.30
2017-07-18T15:01:01.476Z,38.60
2017-07-18T15:03:28.946Z,38.80
2017-07-18T15:05:56.559Z,39.30
2017-07-18T15:08:24.050Z,39.60
2017-07-18T15:10:51.521Z,39.70
2017-07-18T15:13:18.997Z,38.80
2017-07-18T15:15:46.489Z,38.90
2017-07-18T15:18:13.961Z,39.80
2017-07-18T15:20:42.211Z,39.40
2017-07-18T15:23:09.722Z,39.30
2017-07-18T15:25:37.188Z,40.10
2017-07-18T15:28:04.661Z,41.30
2017-07-18T15:30:32.163Z,41.10
2017-07-18T15:33:00.454Z,40.40
2017-07-18T15:35:28.034Z,40.40
2017-07-18T15:37:55.529Z,39.50
2017-07-18T15:40:23.001Z,39.60
2017-07-18T15:42:50.567Z,38.10
2017-07-18T15:45:18.840Z,37.70
2017-07-18T15:47:47.082Z,38.00
2017-07-18T15:50:14.557Z,37.90
2017-07-18T15:52:42.085Z,37.70
2017-07-18T15:55:09.562Z,38.10
2017-07-18T15:57:37.298Z,37.90
2017-07-18T16:00:04.805Z,38.20
2017-07-18T16:02:33.062Z,39.90
2017-07-18T16:05:00.533Z,39.30
2017-07-18T16:07:28.581Z,38.10
2017-07-18T16:09:56.212Z,38.10
2017-07-18T16:12:23.683Z,38.70
2017-07-18T16:14:51.181Z,37.80
2017-07-18T16:17:18.661Z,37.60
2017-07-18T16:19:46.129Z,37.80
2017-07-18T16:22:13.658Z,37.40
2017-07-18T16:24:42.009Z,39.30
2017-07-18T16:27:09.539Z,38.50
2017-07-18T16:29:37.040Z,37.30
2017-07-18T16:32:04.514Z,37.90
2017-07-18T16:34:32.758Z,37.80
2017-07-18T16:37:01.235Z,37.70
2017-07-18T16:39:29.141Z,38.30
2017-07-18T16:41:57.377Z,38.00
2017-07-18T16:44:24.909Z,38.00
2017-07-18T16:46:52.377Z,38.30
2017-07-18T16:49:19.857Z,38.70
2017-07-18T16:51:47.373Z,38.50
2017-07-18T16:54:14.853Z,38.90
2017-07-18T16:56:42.331Z,38.30
2017-07-18T16:59:09.837Z,39.10
2017-07-18T17:01:37.310Z,37.10
2017-07-18T17:04:04.801Z,38.40
2017-07-18T17:06:33.312Z,37.80
2017-07-18T17:09:00.790Z,38.30
2017-07-18T17:11:28.261Z,38.60
2017-07-18T17:13:55.754Z,38.10
2017-07-18T17:16:24.017Z,39.00
2017-07-18T17:18:52.303Z,39.00
2017-07-18T17:21:20.654Z,38.80
2017-07-18T17:23:48.408Z,38.30
2017-07-18T17:26:15.905Z,38.80
2017-07-18T17:28:43.535Z,39.30
2017-07-18T17:31:11.034Z,39.20
2017-07-18T17:33:39.278Z,39.60
2017-07-18T17:36:06.831Z,39.60
2017-07-18T17:38:34.305Z,40.00
2017-07-18T17:41:02.064Z,39.80
2017-07-18T17:43:29.582Z,39.90
2017-07-18T17:45:57.050Z,40.00
2017-07-18T17:48:25.020Z,40.30
2017-07-18T17:50:52.520Z,39.40
2017-07-18T17:53:19.989Z,40.20
2017-07-18T17:55:47.489Z,39.70
2017-07-18T17:58:14.985Z,39.80
2017-07-18T18:00:42.463Z,39.90
2017-07-18T18:03:10.701Z,40.70
2017-07-18T18:05:38.211Z,40.70
2017-07-18T18:08:05.693Z,40.90
2017-07-18T18:10:33.461Z,40.40
2017-07-18T18:13:00.965Z,40.40
2017-07-18T18:15:28.772Z,40.80
2017-07-18T18:17:56.253Z,40.50
2017-07-18T18:20:24.002Z,40.70
2017-07-18T18:22:51.473Z,41.00
2017-07-18T18:25:18.943Z,41.30
2017-07-18T18:27:46.441Z,41.50
2017-07-18T18:30:14.677Z,41.90
2017-07-18T18:32:42.145Z,41.80
2017-07-18T18:35:09.637Z,42.00
2017-07-18T18:37:37.128Z,42.00
2017-07-18T18:40:04.617Z,42.30
2017-07-18T18:42:32.348Z,42.30
2017-07-18T18:45:00.645Z,43.00
2017-07-18T18:47:28.118Z,43.00
2017-07-18T18:49:55.610Z,43.60
2017-07-18T18:52:23.126Z,43.00
2017-07-18T18:54:50.640Z,43.40
2017-07-18T18:57:18.149Z,44.00
2017-07-18T18:59:46.077Z,44.10
2017-07-18T19:02:13.556Z,44.60
2017-07-18T19:04:41.049Z,45.30
2017-07-18T19:07:09.289Z,46.00
2017-07-18T19:09:36.943Z,46.00
2017-07-18T19:12:04.434Z,46.20
2017-07-18T19:14:32.909Z,46.60
2017-07-18T19:17:01.361Z,46.40
2017-07-18T19:19:28.849Z,46.60
2017-07-18T19:21:57.086Z,47.20
2017-07-18T19:24:24.573Z,47.10
2017-07-18T19:26:52.065Z,47.50
2017-07-18T19:29:19.755Z,48.00
2017-07-18T19:31:47.237Z,48.20
2017-07-18T19:34:14.734Z,48.40
2017-07-18T19:36:42.577Z,48.80
2017-07-18T19:39:10.813Z,49.50
2017-07-18T19:41:38.308Z,49.40
2017-07-18T19:44:06.583Z,49.90
2017-07-18T19:46:34.859Z,50.40
2017-07-18T19:49:03.261Z,50.80
2017-07-18T19:51:30.770Z,50.80
2017-07-18T19:53:58.245Z,51.10
2017-07-18T19:56:25.756Z,51.10
2017-07-18T19:58:53.245Z,51.20
2017-07-18T20:01:20.736Z,51.20
2017-07-18T20:03:48.997Z,51.80
2017-07-18T20:06:16.469Z,51.70
2017-07-18T20:08:44.709Z,51.60
2017-07-18T20:11:12.241Z,51.60
2017-07-18T20:13:39.929Z,51.50
2017-07-18T20:16:07.437Z,51.70
2017-07-18T20:18:34.938Z,51.70
2017-07-18T20:21:02.409Z,51.60
2017-07-18T20:23:30.668Z,51.40
2017-07-18T20:25:58.236Z,51.30
2017-07-18T20:28:25.726Z,51.30
2017-07-18T20:30:53.969Z,51.30
2017-07-18T20:33:21.475Z,51.30
2017-07-18T20:35:48.958Z,51.60
2017-07-18T20:38:16.437Z,51.70
2017-07-18T20:40:43.999Z,52.20
2017-07-18T20:43:11.530Z,52.30
2017-07-18T20:45:38.998Z,52.30
2017-07-18T20:48:06.744Z,52.70
2017-07-18T20:50:34.228Z,52.40
2017-07-18T20:53:01.697Z,53.00
2017-07-18T20:55:29.525Z,52.60
2017-07-18T20:57:57.498Z,52.70
2017-07-18T21:00:25.261Z,51.90
2017-07-18T21:02:52.784Z,54.20
2017-07-18T21:05:21.036Z,55.80
2017-07-18T21:07:49.289Z,57.90
2017-07-18T21:10:16.789Z,57.20
2017-07-18T21:12:45.029Z,59.00
2017-07-18T21:15:12.505Z,58.90
2017-07-18T21:17:40.021Z,58.30
2017-07-18T21:20:07.502Z,58.50
2017-07-18T21:22:34.973Z,58.90
2017-07-18T21:25:02.469Z,58.20
2017-07-18T21:27:29.949Z,57.40
2017-07-18T21:29:57.425Z,58.70
2017-07-18T21:32:24.933Z,59.90
2017-07-18T21:34:52.405Z,61.40
2017-07-18T21:37:19.894Z,61.80
2017-07-18T21:39:47.385Z,61.80
2017-07-18T21:42:15.622Z,60.90
2017-07-18T21:44:43.101Z,60.90
2017-07-18T21:47:10.825Z,60.80
2017-07-18T21:49:38.585Z,60.30
2017-07-18T21:52:06.130Z,59.40
2017-07-18T21:54:33.621Z,58.20
2017-07-18T21:57:01.091Z,57.10
2017-07-18T21:59:28.634Z,57.10
2017-07-18T22:01:56.144Z,57.10
2017-07-18T22:04:24.376Z,57.00
2017-07-18T22:06:51.841Z,57.00
2017-07-18T22:09:19.337Z,57.20
2017-07-18T22:11:46.818Z,58.60
2017-07-18T22:14:14.290Z,60.90
2017-07-18T22:16:41.781Z,61.20
2017-07-18T22:19:09.431Z,61.10
2017-07-18T22:21:36.898Z,60.90
2017-07-18T22:24:04.388Z,60.70
2017-07-18T22:26:31.857Z,60.60
2017-07-18T22:28:59.337Z,60.90
2017-07-18T22:31:26.839Z,61.80
2017-07-18T22:33:55.109Z,62.70
2017-07-18T22:36:22.597Z,62.70
2017-07-18T22:38:50.097Z,62.50
2017-07-18T22:41:17.601Z,63.10
2017-07-18T22:43:45.069Z,63.90
2017-07-18T22:46:12.606Z,64.00
2017-07-18T22:48:40.845Z,64.20
2017-07-18T22:51:08.313Z,64.20
2017-07-18T22:53:35.804Z,64.40
2017-07-18T22:56:03.289Z,66.00
2017-07-18T22:58:30.843Z,66.30
2017-07-18T23:00:58.334Z,65.70
2017-07-18T23:03:25.805Z,65.70
2017-07-18T23:05:53.281Z,65.60
2017-07-18T23:08:21.537Z,67.80
2017-07-18T23:10:49.013Z,67.70
2017-07-18T23:13:17.512Z,68.90
2017-07-18T23:15:45.034Z,68.90
2017-07-18T23:18:13.291Z,69.40
2017-07-18T23:20:40.765Z,69.40
2017-07-18T23:23:08.253Z,69.00
2017-07-18T23:25:35.726Z,68.90
2017-07-18T23:28:03.196Z,68.50
2017-07-18T23:30:30.689Z,68.00
2017-07-18T23:32:58.161Z,67.00
2017-07-18T23:35:26.410Z,69.70
2017-07-18T23:37:54.148Z,69.70
2017-07-18T23:40:24.828Z,68.80
2017-07-18T23:42:54.617Z,69.50
2017-07-18T23:45:23.462Z,71.20
2017-07-18T23:47:50.938Z,71.30
2017-07-18T23:50:18.433Z,72.10
2017-07-18T23:52:45.900Z,72.10
2017-07-18T23:55:14.133Z,72.80
2017-07-18T23:57:41.637Z,72.40
